Time;durP1;ratioP1;P1;durP2;ratioP2;P2;SDS_P1;SDS_P2;PMS_P1;PMS_P2;Temp;Humidity;BMP_temperature;BMP_pressure;BME280_temperature;BME280_humidity;BME280_pressure;Samples;Min_cycle;Max_cycle;Signal;HPM_P1;HPM_P2
2022/05/22 00:02:05;;;;;;;8.38;1.70;;;;;;;;;;5105507;28;20069;-68
2022/05/22 00:04:31;;;;;;;3.85;2.00;;;;;;;;;;5103613;28;20043;-68
2022/05/22 00:06:56;;;;;;;7.50;1.90;;;;;;;;;;5100970;28;20028;-67
2022/05/22 00:09:21;;;;;;;5.50;2.08;;;;;;;;;;5111352;28;20458;-68
2022/05/22 00:11:46;;;;;;;6.28;2.30;;;;;;;;;;5102901;28;20504;-67
2022/05/22 00:14:12;;;;;;;8.35;1.90;;;;;;;;;;5104389;28;20063;-68
2022/05/22 00:16:41;;;;;;;6.93;1.92;;;;;;;;;;5100673;28;20023;-68
2022/05/22 00:19:06;;;;;;;9.38;2.10;;;;;;;;;;5110053;28;20035;-68
2022/05/22 00:21:31;;;;;;;5.88;2.17;;;;;;;;;;5103996;28;20020;-68
2022/05/22 00:23:57;;;;;;;5.35;2.40;;;;;;;;;;5107639;28;20030;-68
2022/05/22 00:26:22;;;;;;;7.07;2.40;;;;;;;;;;5104174;28;20100;-68
2022/05/22 00:28:48;;;;;;;3.50;1.90;;;;;;;;;;5109119;28;20059;-68
2022/05/22 00:31:13;;;;;;;3.60;1.77;;;;;;;;;;5103064;28;20020;-68
2022/05/22 00:33:39;;;;;;;6.63;2.22;;;;;;;;;;5103512;28;20465;-68
2022/05/22 00:36:04;;;;;;;5.70;2.22;;;;;;;;;;5098155;28;20040;-68
2022/05/22 00:38:30;;;;;;;7.30;2.17;;;;;;;;;;5107677;28;20100;-68
2022/05/22 00:40:55;;;;;;;5.82;2.38;;;;;;;;;;5102767;28;20034;-68
2022/05/22 00:43:40;;;;;;;7.05;2.50;;;;;;;;;;5112924;28;20032;-67
2022/05/22 00:46:07;;;;;;;7.07;2.30;;;;;;;;;;5112156;28;20062;-68
2022/05/22 00:48:32;;;;;;;5.85;2.33;;;;;;;;;;5103655;28;20498;-68
2022/05/22 00:51:04;;;;;;;10.57;3.00;;;;;;;;;;5105764;28;20019;-67
2022/05/22 00:53:32;;;;;;;7.88;2.78;;;;;;;;;;5097879;28;20036;-68
2022/05/22 00:55:58;;;;;;;7.47;2.30;;;;;;;;;;5100882;28;20019;-69
2022/05/22 00:58:27;;;;;;;9.95;3.17;;;;;;;;;;5077269;28;20028;-67
2022/05/22 01:00:53;;;;;;;11.32;2.80;;;;;;;;;;5106279;28;20024;-68
2022/05/22 01:03:29;;;;;;;12.43;2.72;;;;;;;;;;5105848;28;20027;-68
2022/05/22 01:06:01;;;;;;;9.10;2.55;;;;;;;;;;5112873;28;20024;-68
2022/05/22 01:08:27;;;;;;;7.95;2.38;;;;;;;;;;5111309;28;20035;-67
2022/05/22 01:10:57;;;;;;;5.97;2.60;;;;;;;;;;5101006;28;20024;-68
2022/05/22 01:13:27;;;;;;;9.65;2.78;;;;;;;;;;5105402;28;20048;-67
2022/05/22 01:15:53;;;;;;;6.20;2.65;;;;;;;;;;5101765;28;20027;-67
2022/05/22 01:18:18;;;;;;;7.88;2.83;;;;;;;;;;5103594;28;20102;-68
2022/05/22 01:20:50;;;;;;;8.10;2.28;;;;;;;;;;5105798;28;20020;-68
2022/05/22 01:23:16;;;;;;;9.80;2.53;;;;;;;;;;5111267;28;20471;-68
2022/05/22 01:25:41;;;;;;;8.63;2.42;;;;;;;;;;5108911;28;20024;-68
2022/05/22 01:28:08;;;;;;;5.05;2.50;;;;;;;;;;5106145;28;20015;-67
2022/05/22 01:30:34;;;;;;;11.70;2.70;;;;;;;;;;5103332;28;20032;-68
2022/05/22 01:32:59;;;;;;;13.35;2.50;;;;;;;;;;5098263;28;20041;-67
2022/05/22 01:35:26;;;;;;;8.50;2.72;;;;;;;;;;5104372;28;20067;-68
2022/05/22 01:37:52;;;;;;;7.80;2.45;;;;;;;;;;5104903;28;20035;-68
2022/05/22 01:40:18;;;;;;;11.10;2.58;;;;;;;;;;5100970;28;20012;-67
2022/05/22 01:42:44;;;;;;;6.40;2.30;;;;;;;;;;5102561;28;20038;-68
2022/05/22 01:48:11;;;;;;;9.13;2.35;;;;;;;;;;5105529;28;20064;-67
2022/05/22 01:50:38;;;;;;;7.20;2.20;;;;;;;;;;5113044;28;20024;-67
2022/05/22 01:53:04;;;;;;;10.85;2.88;;;;;;;;;;5111354;28;20042;-67
2022/05/22 01:55:29;;;;;;;7.65;2.47;;;;;;;;;;5101331;28;20433;-67
2022/05/22 01:57:54;;;;;;;5.85;2.40;;;;;;;;;;5105601;28;20024;-67
2022/05/22 02:00:20;;;;;;;6.38;2.85;;;;;;;;;;5110341;28;20012;-67
2022/05/22 02:02:46;;;;;;;6.55;2.20;;;;;;;;;;5102182;28;20039;-67
2022/05/22 02:05:12;;;;;;;7.15;2.50;;;;;;;;;;5097785;28;20083;-67
2022/05/22 02:10:22;;;;;;;9.65;2.53;;;;;;;;;;5102084;28;20084;-68
2022/05/22 02:12:47;;;;;;;9.80;2.60;;;;;;;;;;5109643;28;20509;-68
2022/05/22 02:15:13;;;;;;;8.27;2.63;;;;;;;;;;5107145;28;20024;-68
2022/05/22 02:17:38;;;;;;;5.47;2.30;;;;;;;;;;5112069;28;20027;-67
2022/05/22 02:20:04;;;;;;;9.32;2.33;;;;;;;;;;5113332;28;20118;-67
2022/05/22 02:22:29;;;;;;;10.18;2.55;;;;;;;;;;5101459;28;20013;-68
2022/05/22 02:24:55;;;;;;;8.75;2.92;;;;;;;;;;5111746;28;20019;-67
2022/05/22 02:27:20;;;;;;;7.35;2.50;;;;;;;;;;5103108;28;20115;-67
2022/05/22 02:29:45;;;;;;;6.55;2.38;;;;;;;;;;5100353;28;20026;-67
2022/05/22 02:32:11;;;;;;;6.82;2.35;;;;;;;;;;5097375;28;20375;-68
2022/05/22 02:34:36;;;;;;;5.22;2.40;;;;;;;;;;5101261;28;20062;-67
2022/05/22 02:37:02;;;;;;;8.05;2.22;;;;;;;;;;5101100;28;20486;-68
2022/05/22 02:39:27;;;;;;;12.45;2.35;;;;;;;;;;5099205;28;20028;-67
2022/05/22 02:41:52;;;;;;;7.03;2.40;;;;;;;;;;5095894;28;20066;-67
2022/05/22 02:44:18;;;;;;;7.97;2.00;;;;;;;;;;5104049;28;20012;-67
2022/05/22 02:46:43;;;;;;;6.38;2.15;;;;;;;;;;5104829;28;20023;-67
2022/05/22 02:49:08;;;;;;;7.80;2.60;;;;;;;;;;5097365;28;20032;-68
2022/05/22 02:51:34;;;;;;;8.48;2.08;;;;;;;;;;5103739;28;20011;-67
2022/05/22 02:53:59;;;;;;;8.40;2.70;;;;;;;;;;5105806;28;20032;-67
2022/05/22 02:56:25;;;;;;;8.27;2.22;;;;;;;;;;5103840;28;20028;-67
2022/05/22 02:58:51;;;;;;;7.35;2.42;;;;;;;;;;5108513;28;20471;-67
2022/05/22 03:01:16;;;;;;;12.48;2.90;;;;;;;;;;5095493;28;20089;-67
2022/05/22 03:03:41;;;;;;;8.10;2.45;;;;;;;;;;5100593;28;20019;-68
2022/05/22 03:08:50;;;;;;;5.05;2.45;;;;;;;;;;5093539;28;20501;-67
2022/05/22 03:11:16;;;;;;;9.57;2.53;;;;;;;;;;5110490;28;20032;-67
2022/05/22 03:13:41;;;;;;;6.03;2.05;;;;;;;;;;5104942;28;20440;-68
2022/05/22 03:16:07;;;;;;;9.27;2.15;;;;;;;;;;5106863;28;20379;-68
2022/05/22 03:18:32;;;;;;;10.82;2.47;;;;;;;;;;5100904;28;20532;-67
2022/05/22 03:20:57;;;;;;;9.38;2.75;;;;;;;;;;5101223;28;20043;-68
2022/05/22 03:23:23;;;;;;;5.15;2.40;;;;;;;;;;5113755;28;20034;-67
2022/05/22 03:25:48;;;;;;;9.38;2.60;;;;;;;;;;5107699;28;20394;-68
2022/05/22 03:28:13;;;;;;;8.40;2.40;;;;;;;;;;5105855;28;20028;-67
2022/05/22 03:30:39;;;;;;;5.78;2.40;;;;;;;;;;5113070;28;20063;-68
2022/05/22 03:33:04;;;;;;;6.88;2.30;;;;;;;;;;5109265;28;20036;-68
2022/05/22 03:35:29;;;;;;;11.93;2.35;;;;;;;;;;5100745;28;20047;-67
2022/05/22 03:37:55;;;;;;;11.20;2.42;;;;;;;;;;5104532;28;20363;-68
2022/05/22 03:40:20;;;;;;;5.32;2.58;;;;;;;;;;5110381;28;20024;-67
2022/05/22 03:42:45;;;;;;;9.18;2.40;;;;;;;;;;5110604;28;20498;-67
2022/05/22 03:45:10;;;;;;;5.07;2.13;;;;;;;;;;5109607;28;20035;-68
2022/05/22 03:47:36;;;;;;;13.43;2.65;;;;;;;;;;5099626;28;20031;-67
2022/05/22 03:50:04;;;;;;;6.50;2.45;;;;;;;;;;5105698;28;20065;-67
2022/05/22 03:52:34;;;;;;;14.07;2.83;;;;;;;;;;5103181;28;20111;-68
2022/05/22 03:54:59;;;;;;;9.48;2.95;;;;;;;;;;5114981;28;20081;-67
2022/05/22 03:57:24;;;;;;;15.73;2.75;;;;;;;;;;5112083;28;20016;-68
2022/05/22 03:59:50;;;;;;;8.15;2.65;;;;;;;;;;5107029;28;20073;-67
2022/05/22 04:02:15;;;;;;;5.68;2.58;;;;;;;;;;5102682;28;20047;-68
2022/05/22 04:04:41;;;;;;;8.52;2.25;;;;;;;;;;5100520;28;20016;-67
2022/05/22 04:07:06;;;;;;;9.07;2.47;;;;;;;;;;5107889;28;20015;-68
2022/05/22 04:09:31;;;;;;;9.75;2.47;;;;;;;;;;5106061;28;20173;-68
2022/05/22 04:11:56;;;;;;;10.50;2.55;;;;;;;;;;5103136;28;20024;-67
2022/05/22 04:14:21;;;;;;;11.48;2.60;;;;;;;;;;5105707;28;20063;-67
2022/05/22 04:16:48;;;;;;;7.63;2.67;;;;;;;;;;5108259;28;20038;-67
2022/05/22 04:19:13;;;;;;;8.32;2.35;;;;;;;;;;5099793;28;20024;-68
2022/05/22 04:21:38;;;;;;;10.35;2.90;;;;;;;;;;5110340;28;20039;-67
2022/05/22 04:26:47;;;;;;;8.38;2.47;;;;;;;;;;5106628;28;20379;-68
2022/05/22 04:29:12;;;;;;;11.60;2.65;;;;;;;;;;5110861;28;20035;-68
2022/05/22 04:31:38;;;;;;;12.50;2.85;;;;;;;;;;5098106;28;20024;-67
2022/05/22 04:34:03;;;;;;;11.00;2.45;;;;;;;;;;5106364;28;20047;-67
2022/05/22 04:36:28;;;;;;;6.35;2.05;;;;;;;;;;5109450;28;20515;-67
2022/05/22 04:38:53;;;;;;;10.23;2.33;;;;;;;;;;5105504;28;20012;-67
2022/05/22 04:41:19;;;;;;;8.57;2.67;;;;;;;;;;5103870;28;20031;-68
2022/05/22 04:43:44;;;;;;;8.05;2.33;;;;;;;;;;5108559;28;20051;-67
2022/05/22 04:46:09;;;;;;;8.85;2.00;;;;;;;;;;5106892;28;20436;-68
2022/05/22 04:48:35;;;;;;;6.70;2.30;;;;;;;;;;5101144;28;20020;-68
2022/05/22 04:51:01;;;;;;;9.90;2.90;;;;;;;;;;5108311;28;20106;-68
2022/05/22 04:53:26;;;;;;;5.47;2.20;;;;;;;;;;5101609;28;21253;-67
2022/05/22 04:55:51;;;;;;;7.57;2.25;;;;;;;;;;5099026;28;20016;-67
2022/05/22 04:58:17;;;;;;;3.95;1.80;;;;;;;;;;5107552;28;20054;-67
2022/05/22 05:00:43;;;;;;;6.82;1.67;;;;;;;;;;5102838;28;20007;-68
2022/05/22 05:03:08;;;;;;;8.02;2.17;;;;;;;;;;5109997;28;20028;-67
2022/05/22 05:05:33;;;;;;;6.70;2.10;;;;;;;;;;5101197;28;20028;-68
2022/05/22 05:07:59;;;;;;;6.43;2.00;;;;;;;;;;5100312;28;20019;-67
2022/05/22 05:10:24;;;;;;;7.45;2.00;;;;;;;;;;5100744;28;20019;-68
2022/05/22 05:12:50;;;;;;;8.38;1.90;;;;;;;;;;5100614;28;20031;-67
2022/05/22 05:15:17;;;;;;;6.55;1.73;;;;;;;;;;5103192;28;20402;-68
2022/05/22 05:17:43;;;;;;;8.23;1.50;;;;;;;;;;5106050;28;20065;-68
2022/05/22 05:20:09;;;;;;;6.95;2.33;;;;;;;;;;5103077;28;20027;-68
2022/05/22 05:22:35;;;;;;;7.78;2.10;;;;;;;;;;5100421;28;20363;-68
2022/05/22 05:25:00;;;;;;;6.10;2.28;;;;;;;;;;5102945;28;20085;-68
2022/05/22 05:27:26;;;;;;;6.80;1.80;;;;;;;;;;5100122;28;20032;-68
2022/05/22 05:29:51;;;;;;;6.00;1.95;;;;;;;;;;5101640;28;20023;-68
2022/05/22 05:32:17;;;;;;;3.80;2.28;;;;;;;;;;5102304;28;20519;-68
2022/05/22 05:34:42;;;;;;;7.25;2.45;;;;;;;;;;5095471;28;20039;-68
2022/05/22 05:37:07;;;;;;;4.60;2.17;;;;;;;;;;5100099;28;20046;-68
2022/05/22 05:39:34;;;;;;;5.00;2.20;;;;;;;;;;5103128;28;20020;-68
2022/05/22 05:41:59;;;;;;;5.78;2.10;;;;;;;;;;5102081;28;20455;-68
2022/05/22 05:44:24;;;;;;;6.90;1.80;;;;;;;;;;5096598;28;20026;-68
2022/05/22 05:46:49;;;;;;;4.68;1.50;;;;;;;;;;5107523;28;20023;-68
2022/05/22 05:49:15;;;;;;;3.17;1.67;;;;;;;;;;5107693;28;20031;-68
2022/05/22 05:51:40;;;;;;;2.95;1.40;;;;;;;;;;5108642;28;20020;-68
2022/05/22 05:54:05;;;;;;;3.67;1.30;;;;;;;;;;5108514;28;20046;-68
2022/05/22 05:56:31;;;;;;;3.03;1.35;;;;;;;;;;5104057;28;20040;-69
2022/05/22 05:58:56;;;;;;;3.40;1.30;;;;;;;;;;5100291;28;20130;-68
2022/05/22 06:01:24;;;;;;;3.28;1.30;;;;;;;;;;5110033;28;20016;-68
2022/05/22 06:03:49;;;;;;;4.38;1.30;;;;;;;;;;5100930;28;20039;-68
2022/05/22 06:06:14;;;;;;;5.75;1.10;;;;;;;;;;5103395;28;20020;-68
2022/05/22 06:08:40;;;;;;;3.92;1.50;;;;;;;;;;5101352;28;20030;-68
2022/05/22 06:11:06;;;;;;;2.38;1.00;;;;;;;;;;5107214;28;20042;-68
2022/05/22 06:13:31;;;;;;;2.45;1.20;;;;;;;;;;5099163;28;20472;-69
2022/05/22 06:15:57;;;;;;;5.40;1.25;;;;;;;;;;5095368;28;20044;-68
2022/05/22 06:18:22;;;;;;;3.13;1.17;;;;;;;;;;5106376;28;20486;-68
2022/05/22 06:20:47;;;;;;;6.68;1.38;;;;;;;;;;5103833;28;20038;-68
2022/05/22 06:23:13;;;;;;;3.88;1.40;;;;;;;;;;5099906;28;20110;-68
2022/05/22 06:25:39;;;;;;;8.43;1.60;;;;;;;;;;5107147;28;20035;-68
2022/05/22 06:28:05;;;;;;;4.18;1.30;;;;;;;;;;5112840;28;20024;-68
2022/05/22 06:30:30;;;;;;;3.78;1.42;;;;;;;;;;5113086;28;20015;-68
2022/05/22 06:32:55;;;;;;;3.72;1.45;;;;;;;;;;5109296;28;20123;-68
2022/05/22 06:35:21;;;;;;;3.28;1.50;;;;;;;;;;5113070;28;20127;-68
2022/05/22 06:37:46;;;;;;;2.92;1.38;;;;;;;;;;5113471;28;20466;-68
2022/05/22 06:40:12;;;;;;;5.85;1.23;;;;;;;;;;5112900;28;20383;-68
2022/05/22 06:42:38;;;;;;;3.30;1.52;;;;;;;;;;5111257;28;20023;-68
2022/05/22 06:45:13;;;;;;;4.10;1.55;;;;;;;;;;5112866;28;20028;-69
2022/05/22 06:47:39;;;;;;;9.70;2.30;;;;;;;;;;5102693;28;20161;-68
2022/05/22 06:50:06;;;;;;;6.88;2.13;;;;;;;;;;5102664;28;20103;-68
2022/05/22 06:52:35;;;;;;;5.20;1.77;;;;;;;;;;5103426;28;20479;-68
2022/05/22 06:55:00;;;;;;;5.00;1.88;;;;;;;;;;5112606;28;20031;-68
2022/05/22 06:57:26;;;;;;;4.65;1.88;;;;;;;;;;5111182;28;20021;-68
2022/05/22 06:59:53;;;;;;;6.28;1.80;;;;;;;;;;5110177;28;20032;-68
2022/05/22 07:02:18;;;;;;;6.68;1.75;;;;;;;;;;5112666;28;20032;-68
2022/05/22 07:04:44;;;;;;;6.95;2.05;;;;;;;;;;5111866;28;20027;-68
2022/05/22 07:07:09;;;;;;;6.20;2.95;;;;;;;;;;5098748;28;20047;-69
2022/05/22 07:09:35;;;;;;;9.55;3.17;;;;;;;;;;5110621;28;20109;-68
2022/05/22 07:12:00;;;;;;;7.05;3.15;;;;;;;;;;5116193;28;20061;-68
2022/05/22 07:14:27;;;;;;;3.90;2.17;;;;;;;;;;5104521;28;20506;-68
2022/05/22 07:16:53;;;;;;;8.27;3.20;;;;;;;;;;5115131;28;20023;-68
2022/05/22 07:19:19;;;;;;;5.82;2.50;;;;;;;;;;5109433;28;20020;-69
2022/05/22 07:21:45;;;;;;;6.60;2.83;;;;;;;;;;5101071;28;20024;-69
2022/05/22 07:24:10;;;;;;;7.65;2.38;;;;;;;;;;5099890;28;20111;-69
2022/05/22 07:26:36;;;;;;;5.75;1.92;;;;;;;;;;5105276;28;20024;-68
2022/05/22 07:29:01;;;;;;;5.75;1.70;;;;;;;;;;5112321;28;20047;-68
2022/05/22 07:31:27;;;;;;;7.28;1.60;;;;;;;;;;5113935;28;20066;-69
2022/05/22 07:33:52;;;;;;;6.63;1.63;;;;;;;;;;5112432;28;20055;-69
2022/05/22 07:36:18;;;;;;;7.55;1.90;;;;;;;;;;5116495;28;20054;-69
2022/05/22 07:38:43;;;;;;;6.03;1.83;;;;;;;;;;5112358;28;20024;-68
2022/05/22 07:41:09;;;;;;;6.10;1.50;;;;;;;;;;5107987;28;20031;-69
2022/05/22 07:43:34;;;;;;;4.57;1.73;;;;;;;;;;5107503;28;20462;-68
2022/05/22 07:45:59;;;;;;;6.93;1.88;;;;;;;;;;5110555;28;20510;-69
2022/05/22 07:48:25;;;;;;;5.72;1.60;;;;;;;;;;5107166;28;20096;-69
2022/05/22 07:50:57;;;;;;;5.72;1.60;;;;;;;;;;5112253;28;20023;-68
2022/05/22 07:53:22;;;;;;;6.55;1.77;;;;;;;;;;5113231;28;20031;-68
2022/05/22 07:55:48;;;;;;;5.78;1.60;;;;;;;;;;5113637;28;20035;-69
2022/05/22 07:58:13;;;;;;;7.05;1.77;;;;;;;;;;5102434;28;20055;-69
2022/05/22 08:00:38;;;;;;;10.45;1.40;;;;;;;;;;5106234;28;20024;-70
2022/05/22 08:03:10;;;;;;;5.53;1.97;;;;;;;;;;5104220;28;20024;-69
2022/05/22 08:05:35;;;;;;;8.63;2.00;;;;;;;;;;5111807;28;20279;-69
2022/05/22 08:08:00;;;;;;;4.18;1.42;;;;;;;;;;5107196;28;20059;-70
2022/05/22 08:10:25;;;;;;;5.47;2.00;;;;;;;;;;5113811;28;20028;-69
2022/05/22 08:12:51;;;;;;;5.90;2.00;;;;;;;;;;5104274;28;22254;-67
2022/05/22 08:15:18;;;;;;;5.53;2.10;;;;;;;;;;5107285;28;20268;-68
2022/05/22 08:17:43;;;;;;;5.72;1.90;;;;;;;;;;5103938;28;20252;-67
2022/05/22 08:20:13;;;;;;;4.47;1.80;;;;;;;;;;5107572;28;20040;-68
2022/05/22 08:22:40;;;;;;;10.15;1.67;;;;;;;;;;5111905;28;20035;-68
2022/05/22 08:25:06;;;;;;;7.47;2.25;;;;;;;;;;5114585;28;20158;-68
2022/05/22 08:27:31;;;;;;;4.97;1.77;;;;;;;;;;5114841;28;20534;-69
2022/05/22 08:29:56;;;;;;;8.90;1.98;;;;;;;;;;5115467;28;20023;-68
2022/05/22 08:32:22;;;;;;;3.10;1.57;;;;;;;;;;5114342;28;20470;-68
2022/05/22 08:34:47;;;;;;;4.35;1.70;;;;;;;;;;5114629;28;20283;-68
2022/05/22 08:37:12;;;;;;;5.07;1.75;;;;;;;;;;5115219;28;20381;-68
2022/05/22 08:39:38;;;;;;;6.97;1.70;;;;;;;;;;5115288;28;20443;-68
2022/05/22 08:42:07;;;;;;;5.97;1.73;;;;;;;;;;5106185;28;20640;-68
2022/05/22 08:44:32;;;;;;;5.50;2.00;;;;;;;;;;5112688;28;20041;-69
2022/05/22 08:47:06;;;;;;;6.40;1.80;;;;;;;;;;5114984;28;20383;-68
2022/05/22 08:49:48;;;;;;;6.32;2.05;;;;;;;;;;5115002;28;20346;-69
2022/05/22 08:52:28;;;;;;;6.22;1.70;;;;;;;;;;5103518;28;20118;-69
2022/05/22 08:54:58;;;;;;;5.97;1.77;;;;;;;;;;5114964;28;20039;-68
2022/05/22 09:00:11;;;;;;;7.40;2.00;;;;;;;;;;5110562;28;20042;-68
2022/05/22 09:02:41;;;;;;;5.80;1.70;;;;;;;;;;5114493;28;20080;-69
2022/05/22 09:05:10;;;;;;;5.82;1.90;;;;;;;;;;5114762;28;20074;-68
2022/05/22 09:07:52;;;;;;;6.60;1.85;;;;;;;;;;5113302;28;20467;-69
2022/05/22 09:10:20;;;;;;;5.90;1.90;;;;;;;;;;5099869;28;20020;-68
2022/05/22 09:12:48;;;;;;;4.13;1.67;;;;;;;;;;5114242;28;20300;-68
2022/05/22 09:15:34;;;;;;;6.75;2.10;;;;;;;;;;5110983;28;20023;-69
2022/05/22 09:17:59;;;;;;;7.28;2.00;;;;;;;;;;5100666;28;20517;-68
2022/05/22 09:20:39;;;;;;;8.70;1.80;;;;;;;;;;5105745;28;20036;-68
2022/05/22 09:23:08;;;;;;;4.72;1.70;;;;;;;;;;5107916;28;20115;-68
2022/05/22 09:25:52;;;;;;;8.10;2.47;;;;;;;;;;5106636;28;20473;-68
2022/05/22 09:28:17;;;;;;;4.97;2.05;;;;;;;;;;5106698;28;20032;-69
2022/05/22 09:30:48;;;;;;;5.10;1.70;;;;;;;;;;5113484;28;20084;-68
2022/05/22 09:33:36;;;;;;;6.18;1.83;;;;;;;;;;5102101;28;20327;-68
2022/05/22 09:36:20;;;;;;;4.60;1.30;;;;;;;;;;5097650;28;20090;-70
2022/05/22 09:38:46;;;;;;;5.03;1.50;;;;;;;;;;5098744;28;20035;-70
2022/05/22 09:41:23;;;;;;;3.80;1.20;;;;;;;;;;5111966;28;20035;-69
2022/05/22 09:43:51;;;;;;;4.38;1.10;;;;;;;;;;5111680;28;20034;-70
2022/05/22 09:46:35;;;;;;;3.92;0.88;;;;;;;;;;5111915;28;20034;-69
2022/05/22 09:49:09;;;;;;;3.78;1.10;;;;;;;;;;5108067;28;20073;-69
2022/05/22 09:51:43;;;;;;;4.32;1.27;;;;;;;;;;5099466;28;20040;-69
2022/05/22 09:54:20;;;;;;;2.85;1.00;;;;;;;;;;5113099;28;20027;-69
2022/05/22 09:56:54;;;;;;;4.43;1.17;;;;;;;;;;5113596;28;20084;-69
2022/05/22 09:59:37;;;;;;;3.28;1.00;;;;;;;;;;5110587;28;20773;-69
2022/05/22 10:02:03;;;;;;;;;;;;;;;;;;5109471;28;20368;-69
2022/05/22 10:04:31;;;;;;;3.78;1.25;;;;;;;;;;5113737;28;19919;-69
2022/05/22 10:07:02;;;;;;;2.65;1.35;;;;;;;;;;5113985;28;20028;-69
2022/05/22 10:09:46;;;;;;;4.35;1.23;;;;;;;;;;5111680;28;20477;-69
2022/05/22 10:12:14;;;;;;;6.25;1.40;;;;;;;;;;5105444;28;20023;-69
2022/05/22 10:15:02;;;;;;;4.97;1.10;;;;;;;;;;5107950;28;20035;-69
2022/05/22 10:17:41;;;;;;;6.13;1.20;;;;;;;;;;5072678;28;20459;-69
2022/05/22 10:20:12;;;;;;;2.28;1.20;;;;;;;;;;5113500;28;20036;-69
2022/05/22 10:23:07;;;;;;;4.43;1.27;;;;;;;;;;5103721;28;20016;-69
2022/05/22 10:25:50;;;;;;;3.45;1.30;;;;;;;;;;5050999;28;20045;-69
2022/05/22 10:28:17;;;;;;;5.03;1.50;;;;;;;;;;5112292;28;20057;-69
2022/05/22 10:30:49;;;;;;;6.63;1.60;;;;;;;;;;5113538;28;20038;-70
2022/05/22 10:33:14;;;;;;;6.63;1.25;;;;;;;;;;5117023;28;20039;-70
2022/05/22 10:35:45;;;;;;;2.87;1.10;;;;;;;;;;5117666;28;20047;-69
2022/05/22 10:38:19;;;;;;;3.35;1.20;;;;;;;;;;5117710;28;20275;-69
2022/05/22 10:43:37;;;;;;;3.95;1.20;;;;;;;;;;5116062;28;20395;-69
2022/05/22 10:46:02;;;;;;;3.97;1.10;;;;;;;;;;5117519;28;20011;-69
2022/05/22 10:48:28;;;;;;;3.35;1.13;;;;;;;;;;5117303;28;20081;-69
2022/05/22 10:51:13;;;;;;;3.08;0.90;;;;;;;;;;5117206;28;20837;-69
2022/05/22 10:53:49;;;;;;;2.85;0.80;;;;;;;;;;5117344;28;20031;-69
2022/05/22 10:56:14;;;;;;;3.63;1.02;;;;;;;;;;5109096;28;20104;-69
2022/05/22 10:59:00;;;;;;;4.83;1.07;;;;;;;;;;5116852;28;20467;-69
2022/05/22 11:01:26;;;;;;;3.67;1.23;;;;;;;;;;5083539;28;20346;-69
2022/05/22 11:04:08;;;;;;;2.13;1.10;;;;;;;;;;5114045;28;20031;-68
2022/05/22 11:06:34;;;;;;;2.72;1.08;;;;;;;;;;5117059;28;20077;-69
2022/05/22 11:09:00;;;;;;;4.28;0.90;;;;;;;;;;5104143;28;20073;-68
2022/05/22 11:11:27;;;;;;;1.75;0.85;;;;;;;;;;5105891;28;20032;-69
2022/05/22 11:13:52;;;;;;;5.55;1.25;;;;;;;;;;5116612;28;20027;-69
2022/05/22 11:16:24;;;;;;;3.53;1.00;;;;;;;;;;5116968;28;20027;-68
2022/05/22 11:19:00;;;;;;;4.32;0.90;;;;;;;;;;5116689;28;20038;-69
2022/05/22 11:21:34;;;;;;;2.85;0.93;;;;;;;;;;5116821;28;20036;-69
2022/05/22 11:24:10;;;;;;;4.40;1.00;;;;;;;;;;5116585;28;20050;-69
2022/05/22 11:26:59;;;;;;;2.22;0.85;;;;;;;;;;5116478;28;20020;-70
2022/05/22 11:29:43;;;;;;;3.38;0.90;;;;;;;;;;5116010;28;20035;-68
2022/05/22 11:32:08;;;;;;;;;;;;;;;;;;5116721;28;20023;-69
2022/05/22 11:34:46;;;;;;;2.43;0.80;;;;;;;;;;5116602;28;20362;-69
2022/05/22 11:37:17;;;;;;;4.72;1.02;;;;;;;;;;5101097;28;20311;-69
2022/05/22 11:39:42;;;;;;;2.78;0.88;;;;;;;;;;5114021;28;20098;-69
2022/05/22 11:42:17;;;;;;;2.70;1.03;;;;;;;;;;5112991;28;20455;-68
2022/05/22 11:44:46;;;;;;;2.90;1.00;;;;;;;;;;5108416;28;20379;-69
2022/05/22 11:47:26;;;;;;;2.13;0.90;;;;;;;;;;5111118;28;20482;-69
2022/05/22 11:50:09;;;;;;;6.13;1.52;;;;;;;;;;5109475;28;20387;-69
2022/05/22 11:52:56;;;;;;;5.05;0.90;;;;;;;;;;5113740;28;20059;-69
2022/05/22 11:55:29;;;;;;;2.05;0.90;;;;;;;;;;5108889;28;20483;-69
2022/05/22 11:58:30;;;;;;;2.03;0.85;;;;;;;;;;5111609;28;20034;-69
2022/05/22 12:01:04;;;;;;;1.80;0.77;;;;;;;;;;4996585;28;20031;-69
2022/05/22 12:03:47;;;;;;;2.63;0.95;;;;;;;;;;5092340;28;20131;-69
2022/05/22 12:06:40;;;;;;;4.22;0.90;;;;;;;;;;5108544;28;20024;-69
2022/05/22 12:09:19;;;;;;;2.58;1.00;;;;;;;;;;5102360;28;20158;-69
2022/05/22 12:11:58;;;;;;;2.90;0.90;;;;;;;;;;5102109;28;20490;-69
2022/05/22 12:14:32;;;;;;;3.63;0.80;;;;;;;;;;5105732;28;20042;-69
2022/05/22 12:16:57;;;;;;;3.20;0.80;;;;;;;;;;5098703;28;20056;-69
2022/05/22 12:19:33;;;;;;;2.90;1.05;;;;;;;;;;5108768;28;20077;-68
2022/05/22 12:22:10;;;;;;;1.48;0.63;;;;;;;;;;5107770;28;20030;-69
2022/05/22 12:24:57;;;;;;;2.63;0.80;;;;;;;;;;5103272;28;20027;-69
2022/05/22 12:27:22;;;;;;;2.03;0.70;;;;;;;;;;5103835;28;20472;-69
2022/05/22 12:29:53;;;;;;;1.50;0.70;;;;;;;;;;5106816;28;20115;-69
2022/05/22 12:32:22;;;;;;;1.63;0.63;;;;;;;;;;5103766;28;20256;-69
2022/05/22 12:34:49;;;;;;;0.95;0.57;;;;;;;;;;5108492;28;20024;-68
2022/05/22 12:37:23;;;;;;;1.30;0.52;;;;;;;;;;5067851;28;1167058;-69
2022/05/22 12:39:53;;;;;;;1.95;0.68;;;;;;;;;;5102998;28;20387;-68
2022/05/22 12:42:24;;;;;;;0.98;0.45;;;;;;;;;;5102366;28;20036;-69
2022/05/22 12:44:50;;;;;;;1.48;0.70;;;;;;;;;;5104717;28;20036;-68
2022/05/22 12:47:15;;;;;;;2.95;0.90;;;;;;;;;;5098884;28;20038;-69
2022/05/22 12:49:52;;;;;;;1.42;0.75;;;;;;;;;;5113390;28;20439;-69
2022/05/22 12:52:23;;;;;;;0.98;0.60;;;;;;;;;;5109638;28;20106;-69
2022/05/22 12:54:55;;;;;;;1.30;0.70;;;;;;;;;;5106298;28;20077;-68
2022/05/22 12:57:21;;;;;;;2.50;0.70;;;;;;;;;;5101823;28;20020;-69
2022/05/22 12:59:52;;;;;;;1.58;0.65;;;;;;;;;;5102933;28;20118;-68
2022/05/22 13:02:37;;;;;;;0.88;0.50;;;;;;;;;;5106744;28;20027;-69
2022/05/22 13:05:11;;;;;;;1.40;0.70;;;;;;;;;;5110071;28;20044;-69
2022/05/22 13:07:36;;;;;;;1.27;0.47;;;;;;;;;;5100587;28;20042;-68
2022/05/22 13:10:31;;;;;;;2.55;0.70;;;;;;;;;;5099365;28;20107;-68
2022/05/22 13:13:02;;;;;;;1.67;0.60;;;;;;;;;;5078134;28;20434;-69
2022/05/22 13:15:28;;;;;;;3.20;0.90;;;;;;;;;;5105670;28;20032;-68
2022/05/22 13:18:13;;;;;;;1.48;0.60;;;;;;;;;;5102798;28;20020;-69
2022/05/22 13:20:38;;;;;;;2.05;0.70;;;;;;;;;;5104493;28;20024;-68
2022/05/22 13:23:25;;;;;;;1.80;0.60;;;;;;;;;;5104230;28;20575;-68
2022/05/22 13:25:52;;;;;;;2.97;0.60;;;;;;;;;;5100692;28;20286;-68
2022/05/22 13:28:31;;;;;;;1.55;0.55;;;;;;;;;;5100017;28;20024;-68
2022/05/22 13:31:03;;;;;;;1.02;0.52;;;;;;;;;;5104383;28;20103;-69
2022/05/22 13:33:28;;;;;;;0.85;0.65;;;;;;;;;;5106361;28;20055;-68
2022/05/22 13:35:58;;;;;;;1.77;0.65;;;;;;;;;;5100573;28;20055;-69
2022/05/22 13:38:23;;;;;;;1.35;0.70;;;;;;;;;;5102091;28;20024;-68
2022/05/22 13:40:51;;;;;;;1.17;0.60;;;;;;;;;;5104717;28;20547;-69
2022/05/22 13:43:31;;;;;;;2.58;0.70;;;;;;;;;;5111120;28;20028;-68
2022/05/22 13:46:12;;;;;;;1.38;0.60;;;;;;;;;;5107358;28;20034;-69
2022/05/22 13:48:40;;;;;;;1.75;0.70;;;;;;;;;;5108714;28;20076;-69
2022/05/22 13:53:49;;;;;;;;;;;;;;;;;;5106000;28;20038;-68
2022/05/22 13:56:14;;;;;;;0.65;0.50;;;;;;;;;;5102003;28;19916;-68
2022/05/22 13:58:40;;;;;;;1.23;0.50;;;;;;;;;;5099842;28;20042;-68
2022/05/22 14:01:08;;;;;;;1.50;0.50;;;;;;;;;;5100051;28;20024;-68
2022/05/22 14:03:36;;;;;;;2.10;0.73;;;;;;;;;;5095162;28;20040;-68
2022/05/22 14:06:03;;;;;;;2.42;0.80;;;;;;;;;;5109075;28;20443;-69
2022/05/22 14:08:34;;;;;;;3.08;0.70;;;;;;;;;;5097415;28;20051;-69
2022/05/22 14:11:11;;;;;;;3.47;0.65;;;;;;;;;;5108835;28;20036;-68
2022/05/22 14:13:36;;;;;;;2.13;1.10;;;;;;;;;;5098822;28;20432;-68
2022/05/22 14:16:03;;;;;;;2.33;0.73;;;;;;;;;;5112172;28;20027;-68
2022/05/22 14:18:30;;;;;;;1.55;0.70;;;;;;;;;;5112725;28;20059;-68
2022/05/22 14:21:09;;;;;;;1.45;0.60;;;;;;;;;;5111650;28;20098;-68
2022/05/22 14:24:51;;;;;;;1.48;0.50;;;;;;;;;;5102957;28;20082;-68
2022/05/22 14:26:24;;;;;;;0.85;0.57;;;;;;;;;;5103700;28;20036;-68
2022/05/22 14:28:50;;;;;;;2.53;0.90;;;;;;;;;;5102176;28;20076;-68
2022/05/22 14:31:16;;;;;;;2.47;0.70;;;;;;;;;;5098450;28;20028;-68
2022/05/22 14:33:42;;;;;;;1.13;0.50;;;;;;;;;;5100847;28;20024;-69
2022/05/22 14:36:09;;;;;;;1.17;0.60;;;;;;;;;;5100211;28;20040;-68
2022/05/22 14:38:38;;;;;;;3.20;0.65;;;;;;;;;;5105389;28;20031;-69
2022/05/22 14:41:05;;;;;;;3.05;0.93;;;;;;;;;;5105377;28;20057;-69
2022/05/22 14:43:44;;;;;;;2.45;0.80;;;;;;;;;;5103470;28;20036;-69
2022/05/22 14:46:24;;;;;;;3.95;0.80;;;;;;;;;;5104633;28;20032;-69
2022/05/22 14:48:51;;;;;;;4.15;1.48;;;;;;;;;;5102663;28;20028;-69
2022/05/22 14:51:38;;;;;;;1.88;0.80;;;;;;;;;;5101902;28;20040;-68
2022/05/22 14:54:03;;;;;;;1.08;0.60;;;;;;;;;;5108384;28;20093;-68
2022/05/22 14:56:28;;;;;;;1.47;0.60;;;;;;;;;;5110365;28;20119;-68
2022/05/22 14:58:58;;;;;;;2.88;0.80;;;;;;;;;;5107706;28;20258;-68
2022/05/22 15:01:33;;;;;;;2.50;0.70;;;;;;;;;;5102432;28;20107;-69
2022/05/22 15:04:01;;;;;;;1.30;0.50;;;;;;;;;;5104397;28;20618;-68
2022/05/22 15:06:27;;;;;;;3.45;0.70;;;;;;;;;;5104572;28;20059;-68
2022/05/22 15:08:54;;;;;;;2.13;0.70;;;;;;;;;;5108629;28;20027;-68
2022/05/22 15:11:22;;;;;;;1.50;0.70;;;;;;;;;;5098561;28;20024;-68
2022/05/22 15:13:55;;;;;;;3.10;0.90;;;;;;;;;;5096966;28;20031;-68